Terminal Aerodrome Forecast
Issued by NWS

Home | Current Version | Previous Version | Text Only | Print | Product List | Glossary Off
Versions: 1 2 3 4 5 6 7 8 9 10 11 12 13 14 15 16 17 18 19 20

000
FTUS43 KPAH 211120
TAFCGI
TAF
KCGI 211120Z 2112/2212 35010KT P6SM SCT015 BKN025
      TEMPO 2112/2116 BKN015
     FM211800 36009KT P6SM BKN035
     FM220100 VRB02KT P6SM SKC=

USA.gov is the U.S. government's official web portal to all federal, state and local government web resources and services.